PWSweather.com
Personal Weather Stations
Station Observations
UISISLE1
Newport, Isle ofWight, ISLE OF WIGHT PO30 2JX

NewportIsle ofWight, ISLE OF WIGHT PO30 2JX

Lat: 50.72, Lon: -1.27

Elevation: 45

Station Type: Davis Vantage Pro Plus

http://www.isleofwightweather.co.uk

High Low Average
Temperature 49.7°F9.8°C 40.4°F4.7°C 43.4°F6.3°C
Dew Point 42.4°F5.8°C 35.0°F1.7°C 37.5°F3.1°C
Winds 8.6 mph 13.8 kmh Calm Calm 3.0 mph SW4.8 kmh SW
Wind Gusts 12.4 mph20.0 kmh -- 5.0 mph8.0 kmh
Humidity 95% 64% 80%
Pressure 29.95 in1014.2 mb 29.74 in1007.1 mb -
Precipitation 0.24 in6.1 mm - -
Hour Temp Dew Point Humidity Winds Wind Gusts Pressure Precip Precip Rate Daily Precip Total
12:00 AM 42.8°F6.0°C 39.2°F4.0°C 87% 4.5 mph NW7.2 kmh NW 8.2 mph13.2 kmh 29.79 in1008.8 mb - 0.00 in0.0 mm 0.00 in0.0 mm
12:15 AM 42.7°F5.9°C 39.1°F3.9°C 87% 5.2 mph NW8.4 kmh NW 6.2 mph10.0 kmh 29.80 in1009.1 mb - 0.00 in0.0 mm 0.00 in0.0 mm
12:30 AM 42.6°F5.9°C 39.0°F3.9°C 87% 5.7 mph NW9.2 kmh NW 6.2 mph10.0 kmh 29.80 in1009.1 mb - 0.00 in0.0 mm 0.00 in0.0 mm
12:45 AM 42.6°F5.9°C 39.0°F3.9°C 87% 5.1 mph NNW8.2 kmh NNW 8.2 mph13.2 kmh 29.80 in1009.1 mb - 0.00 in0.0 mm 0.00 in0.0 mm
01:00 AM 42.5°F5.8°C 38.9°F3.8°C 87% 6.5 mph NW10.5 kmh NW 12.4 mph20.0 kmh 29.81 in1009.5 mb - 0.00 in0.0 mm 0.00 in0.0 mm
01:15 AM 42.5°F5.8°C 38.9°F3.8°C 87% 5.0 mph NNW8.0 kmh NNW 10.3 mph16.6 kmh 29.82 in1009.8 mb - 0.00 in0.0 mm 0.00 in0.0 mm
01:30 AM 42.4°F5.8°C 38.8°F3.8°C 87% 2.3 mph NNW3.7 kmh NNW 5.1 mph8.2 kmh 29.82 in1009.8 mb - 0.00 in0.0 mm 0.00 in0.0 mm
01:45 AM 42.2°F5.7°C 38.6°F3.7°C 87% 8.6 mph NNW13.8 kmh NNW 11.3 mph18.2 kmh 29.82 in1009.8 mb - 0.00 in0.0 mm 0.00 in0.0 mm
02:00 AM 42.0°F5.6°C 38.4°F3.6°C 87% 2.6 mph N4.2 kmh N 3.1 mph5.0 kmh 29.82 in1009.8 mb - 0.00 in0.0 mm 0.00 in0.0 mm
02:15 AM 41.7°F5.4°C 38.1°F3.4°C 87% 7.1 mph NNW11.4 kmh NNW 7.2 mph11.6 kmh 29.83 in1010.2 mb - 0.00 in0.0 mm 0.00 in0.0 mm
02:30 AM 41.6°F5.3°C 38.0°F3.3°C 87% 4.6 mph NNW7.4 kmh NNW 5.1 mph8.2 kmh 29.83 in1010.2 mb - 0.00 in0.0 mm 0.00 in0.0 mm
02:45 AM 41.6°F5.3°C 38.0°F3.3°C 87% 4.3 mph NW6.9 kmh NW 6.2 mph10.0 kmh 29.83 in1010.2 mb - 0.00 in0.0 mm 0.00 in0.0 mm
03:00 AM 41.3°F5.2°C 37.7°F3.2°C 87% 4.3 mph NW6.9 kmh NW 9.3 mph15.0 kmh 29.84 in1010.5 mb - 0.00 in0.0 mm 0.00 in0.0 mm
03:15 AM 41.0°F5.0°C 37.1°F2.8°C 86% 4.5 mph NW7.2 kmh NW 6.2 mph10.0 kmh 29.84 in1010.5 mb - 0.00 in0.0 mm 0.00 in0.0 mm
03:30 AM 40.7°F4.8°C 36.2°F2.3°C 84% 5.5 mph NW8.9 kmh NW 6.2 mph10.0 kmh 29.85 in1010.8 mb - 0.00 in0.0 mm 0.00 in0.0 mm
03:45 AM 40.6°F4.8°C 35.6°F2.0°C 82% 6.7 mph NW10.8 kmh NW 10.3 mph16.6 kmh 29.85 in1010.8 mb - 0.00 in0.0 mm 0.00 in0.0 mm
04:00 AM 40.7°F4.8°C 35.3°F1.8°C 81% 3.1 mph NW5.0 kmh NW 7.2 mph11.6 kmh 29.86 in1011.2 mb - 0.00 in0.0 mm 0.00 in0.0 mm
04:15 AM 40.7°F4.8°C 35.3°F1.8°C 81% 3.4 mph NNW5.5 kmh NNW 5.1 mph8.2 kmh 29.86 in1011.2 mb - 0.00 in0.0 mm 0.00 in0.0 mm
04:30 AM 40.7°F4.8°C 35.0°F1.7°C 80% 3.6 mph NW5.8 kmh NW 6.2 mph10.0 kmh 29.86 in1011.2 mb - 0.00 in0.0 mm 0.00 in0.0 mm
04:45 AM 40.7°F4.8°C 35.0°F1.7°C 80% 2.2 mph NW3.5 kmh NW 7.2 mph11.6 kmh 29.86 in1011.2 mb - 0.00 in0.0 mm 0.00 in0.0 mm
05:00 AM 40.7°F4.8°C 35.0°F1.7°C 80% 2.6 mph NW4.2 kmh NW 3.1 mph5.0 kmh 29.87 in1011.5 mb - 0.00 in0.0 mm 0.00 in0.0 mm
05:15 AM 40.7°F4.8°C 35.0°F1.7°C 80% 3.0 mph NNW4.8 kmh NNW 5.1 mph8.2 kmh 29.87 in1011.5 mb - 0.00 in0.0 mm 0.00 in0.0 mm
05:30 AM 40.5°F4.7°C 35.1°F1.7°C 81% 1.9 mph N3.1 kmh N 2.1 mph3.4 kmh 29.87 in1011.5 mb - 0.00 in0.0 mm 0.00 in0.0 mm
05:45 AM 40.5°F4.7°C 35.4°F1.9°C 82% 1.8 mph WNW2.9 kmh WNW 5.1 mph8.2 kmh 29.88 in1011.9 mb - 0.00 in0.0 mm 0.00 in0.0 mm
06:00 AM 40.4°F4.7°C 35.4°F1.9°C 82% 3.0 mph NW4.8 kmh NW 4.1 mph6.6 kmh 29.89 in1012.2 mb - 0.00 in0.0 mm 0.00 in0.0 mm
06:15 AM 40.5°F4.7°C 35.7°F2.1°C 83% 1.2 mph WNW1.9 kmh WNW 5.1 mph8.2 kmh 29.90 in1012.5 mb - 0.00 in0.0 mm 0.00 in0.0 mm
06:30 AM 40.5°F4.7°C 36.0°F2.2°C 84% 1.8 mph WNW2.9 kmh WNW 3.1 mph5.0 kmh 29.90 in1012.5 mb - 0.00 in0.0 mm 0.00 in0.0 mm
06:45 AM 40.6°F4.8°C 36.1°F2.3°C 84% 3.2 mph WNW5.1 kmh WNW 4.1 mph6.6 kmh 29.91 in1012.9 mb - 0.00 in0.0 mm 0.00 in0.0 mm
07:00 AM 40.8°F4.9°C 36.6°F2.6°C 85% 3.0 mph NW4.8 kmh NW 5.1 mph8.2 kmh 29.91 in1012.9 mb - 0.00 in0.0 mm 0.00 in0.0 mm
07:15 AM 41.0°F5.0°C 36.8°F2.7°C 85% 3.2 mph NW5.1 kmh NW 4.1 mph6.6 kmh 29.91 in1012.9 mb - 0.00 in0.0 mm 0.00 in0.0 mm
07:30 AM 41.0°F5.0°C 36.8°F2.7°C 85% 3.2 mph NW5.1 kmh NW 5.1 mph8.2 kmh 29.92 in1013.2 mb - 0.00 in0.0 mm 0.00 in0.0 mm
07:45 AM 41.3°F5.2°C 37.1°F2.8°C 85% 3.6 mph NW5.8 kmh NW 5.1 mph8.2 kmh 29.92 in1013.2 mb - 0.00 in0.0 mm 0.00 in0.0 mm
08:00 AM 41.5°F5.3°C 37.3°F2.9°C 85% 2.8 mph NNW4.5 kmh NNW 4.1 mph6.6 kmh 29.93 in1013.5 mb - 0.00 in0.0 mm 0.00 in0.0 mm
08:15 AM 41.7°F5.4°C 37.2°F2.9°C 84% 2.2 mph NNW3.5 kmh NNW 4.1 mph6.6 kmh 29.93 in1013.5 mb - 0.00 in0.0 mm 0.00 in0.0 mm
08:30 AM 42.0°F5.6°C 36.9°F2.7°C 82% 2.8 mph NW4.5 kmh NW 4.1 mph6.6 kmh 29.93 in1013.5 mb - 0.00 in0.0 mm 0.00 in0.0 mm
08:45 AM 42.6°F5.9°C 36.8°F2.7°C 80% 3.4 mph NNW5.5 kmh NNW 4.1 mph6.6 kmh 29.93 in1013.5 mb - 0.00 in0.0 mm 0.00 in0.0 mm
09:00 AM 43.0°F6.1°C 37.3°F2.9°C 80% 2.2 mph NNW3.5 kmh NNW 4.1 mph6.6 kmh 29.94 in1013.9 mb - 0.00 in0.0 mm 0.00 in0.0 mm
09:15 AM 43.0°F6.1°C 36.9°F2.7°C 79% 3.2 mph NW5.1 kmh NW 4.1 mph6.6 kmh 29.94 in1013.9 mb - 0.00 in0.0 mm 0.00 in0.0 mm
09:30 AM 43.7°F6.5°C 37.2°F2.9°C 78% 1.7 mph WNW2.7 kmh WNW 3.1 mph5.0 kmh 29.94 in1013.9 mb - 0.00 in0.0 mm 0.00 in0.0 mm
09:45 AM 43.9°F6.6°C 35.8°F2.1°C 73% 2.6 mph NW4.2 kmh NW 5.1 mph8.2 kmh 29.94 in1013.9 mb - 0.00 in0.0 mm 0.00 in0.0 mm
10:00 AM 44.0°F6.7°C 35.9°F2.2°C 73% Calm Calm -- 29.95 in1014.2 mb - 0.00 in0.0 mm 0.00 in0.0 mm
10:15 AM 44.2°F6.8°C 35.7°F2.1°C 72% 1.5 mph NE2.4 kmh NE 2.1 mph3.4 kmh 29.95 in1014.2 mb - 0.00 in0.0 mm 0.00 in0.0 mm
10:30 AM 44.5°F6.9°C 36.4°F2.4°C 73% 0.3 mph NNW0.5 kmh NNW 2.1 mph3.4 kmh 29.95 in1014.2 mb - 0.00 in0.0 mm 0.00 in0.0 mm
10:45 AM 44.8°F7.1°C 36.3°F2.4°C 72% Calm Calm -- 29.95 in1014.2 mb - 0.00 in0.0 mm 0.00 in0.0 mm
11:00 AM 45.1°F7.3°C 36.6°F2.6°C 72% 0.4 mph W0.6 kmh W 4.1 mph6.6 kmh 29.95 in1014.2 mb - 0.00 in0.0 mm 0.00 in0.0 mm
11:15 AM 45.3°F7.4°C 36.1°F2.3°C 70% 0.8 mph NW1.3 kmh NW 3.1 mph5.0 kmh 29.95 in1014.2 mb - 0.00 in0.0 mm 0.00 in0.0 mm
11:30 AM 45.7°F7.6°C 36.8°F2.7°C 71% 2.7 mph NW4.3 kmh NW 7.2 mph11.6 kmh 29.95 in1014.2 mb - 0.00 in0.0 mm 0.00 in0.0 mm
11:45 AM 46.7°F8.2°C 37.8°F3.2°C 71% 0.1 mph WSW0.2 kmh WSW 2.0 mph3.2 kmh 29.95 in1014.2 mb - 0.00 in0.0 mm 0.00 in0.0 mm
12:00 PM 47.6°F8.7°C 37.6°F3.1°C 68% Calm Calm 1.0 mph1.6 kmh 29.95 in1014.2 mb - 0.00 in0.0 mm 0.00 in0.0 mm
12:15 PM 47.8°F8.8°C 37.7°F3.2°C 68% 1.3 mph S2.1 kmh S 4.0 mph6.4 kmh 29.95 in1014.2 mb - 0.00 in0.0 mm 0.00 in0.0 mm
12:30 PM 47.8°F8.8°C 37.0°F2.8°C 66% 0.9 mph N1.4 kmh N 3.1 mph5.0 kmh 29.95 in1014.2 mb - 0.00 in0.0 mm 0.00 in0.0 mm
12:45 PM 47.6°F8.7°C 37.2°F2.9°C 67% 3.0 mph N4.8 kmh N 4.1 mph6.6 kmh 29.94 in1013.9 mb - 0.00 in0.0 mm 0.00 in0.0 mm
01:00 PM 48.6°F9.2°C 38.1°F3.4°C 67% Calm Calm -- 29.94 in1013.9 mb - 0.00 in0.0 mm 0.00 in0.0 mm
01:15 PM 49.7°F9.8°C 38.8°F3.8°C 66% 2.4 mph NNW3.9 kmh NNW 3.1 mph5.0 kmh 29.94 in1013.9 mb - 0.00 in0.0 mm 0.00 in0.0 mm
01:30 PM 48.8°F9.3°C 37.9°F3.3°C 66% 0.8 mph ENE1.3 kmh ENE 3.0 mph4.8 kmh 29.93 in1013.5 mb - 0.00 in0.0 mm 0.00 in0.0 mm
01:45 PM 49.1°F9.5°C 37.4°F3.0°C 64% 3.1 mph SW5.0 kmh SW 4.0 mph6.4 kmh 29.93 in1013.5 mb - 0.00 in0.0 mm 0.00 in0.0 mm
02:00 PM 49.3°F9.6°C 38.0°F3.3°C 65% 4.2 mph SSE6.8 kmh SSE 7.0 mph11.3 kmh 29.93 in1013.5 mb - 0.00 in0.0 mm 0.00 in0.0 mm
02:15 PM 49.0°F9.4°C 38.5°F3.6°C 67% 3.0 mph S4.8 kmh S 6.0 mph9.7 kmh 29.93 in1013.5 mb - 0.00 in0.0 mm 0.00 in0.0 mm
02:30 PM 48.5°F9.2°C 38.0°F3.3°C 67% 4.9 mph S7.9 kmh S 7.0 mph11.3 kmh 29.93 in1013.5 mb - 0.00 in0.0 mm 0.00 in0.0 mm
02:45 PM 48.0°F8.9°C 37.6°F3.1°C 67% 3.9 mph S6.3 kmh S 6.0 mph9.7 kmh 29.92 in1013.2 mb - 0.00 in0.0 mm 0.00 in0.0 mm
03:00 PM 47.7°F8.7°C 37.7°F3.2°C 68% 1.3 mph ESE2.1 kmh ESE 3.0 mph4.8 kmh 29.92 in1013.2 mb - 0.00 in0.0 mm 0.00 in0.0 mm
03:15 PM 47.4°F8.6°C 37.4°F3.0°C 68% 2.3 mph S3.7 kmh S 4.0 mph6.4 kmh 29.92 in1013.2 mb - 0.00 in0.0 mm 0.00 in0.0 mm
03:30 PM 47.3°F8.5°C 37.6°F3.1°C 69% 0.1 mph E0.2 kmh E 2.0 mph3.2 kmh 29.92 in1013.2 mb - 0.00 in0.0 mm 0.00 in0.0 mm
03:45 PM 47.0°F8.3°C 37.0°F2.8°C 68% 2.8 mph ESE4.5 kmh ESE 7.0 mph11.3 kmh 29.91 in1012.9 mb - 0.00 in0.0 mm 0.00 in0.0 mm
04:00 PM 46.5°F8.1°C 36.5°F2.5°C 68% 1.9 mph S3.1 kmh S 3.0 mph4.8 kmh 29.91 in1012.9 mb - 0.00 in0.0 mm 0.00 in0.0 mm
04:15 PM 46.1°F7.8°C 36.1°F2.3°C 68% 0.9 mph SE1.4 kmh SE 7.0 mph11.3 kmh 29.91 in1012.9 mb - 0.00 in0.0 mm 0.00 in0.0 mm
04:30 PM 45.7°F7.6°C 35.7°F2.1°C 68% 2.8 mph ESE4.5 kmh ESE 6.0 mph9.7 kmh 29.90 in1012.5 mb - 0.00 in0.0 mm 0.00 in0.0 mm
04:45 PM 45.4°F7.4°C 35.8°F2.1°C 69% 0.1 mph E0.2 kmh E 3.0 mph4.8 kmh 29.89 in1012.2 mb - 0.00 in0.0 mm 0.00 in0.0 mm
05:00 PM 45.0°F7.2°C 35.8°F2.1°C 70% 1.5 mph E2.4 kmh E 6.0 mph9.7 kmh 29.89 in1012.2 mb - 0.00 in0.0 mm 0.00 in0.0 mm
05:15 PM 44.7°F7.1°C 35.8°F2.1°C 71% Calm Calm -- 29.89 in1012.2 mb - 0.00 in0.0 mm 0.00 in0.0 mm
05:30 PM 44.4°F6.9°C 35.9°F2.2°C 72% 0.8 mph E1.3 kmh E 5.0 mph8.0 kmh 29.89 in1012.2 mb - 0.00 in0.0 mm 0.00 in0.0 mm
05:45 PM 44.0°F6.7°C 35.9°F2.2°C 73% 0.6 mph SE1.0 kmh SE -- 29.88 in1011.9 mb - 0.00 in0.0 mm 0.00 in0.0 mm
06:00 PM 43.7°F6.5°C 36.6°F2.6°C 76% 0.7 mph SE1.1 kmh SE -- 29.88 in1011.9 mb - 0.00 in0.0 mm 0.00 in0.0 mm
06:15 PM 43.4°F6.3°C 36.7°F2.6°C 77% 1.0 mph ESE1.6 kmh ESE -- 29.88 in1011.9 mb - 0.00 in0.0 mm 0.00 in0.0 mm
06:30 PM 43.0°F6.1°C 36.6°F2.6°C 78% 0.1 mph E0.2 kmh E -- 29.88 in1011.9 mb - 0.01 in0.3 mm 0.01 in0.3 mm
06:45 PM 42.6°F5.9°C 36.9°F2.7°C 80% Calm Calm -- 29.88 in1011.9 mb - 0.01 in0.3 mm 0.02 in0.5 mm
07:00 PM 42.3°F5.7°C 37.2°F2.9°C 82% Calm Calm -- 29.87 in1011.5 mb - 0.01 in0.3 mm 0.02 in0.5 mm
07:15 PM 41.9°F5.5°C 37.4°F3.0°C 84% Calm Calm -- 29.87 in1011.5 mb - 0.02 in0.5 mm 0.04 in1.0 mm
07:30 PM 41.7°F5.4°C 37.5°F3.1°C 85% 1.7 mph ESE2.7 kmh ESE 6.0 mph9.7 kmh 29.86 in1011.2 mb - 0.02 in0.5 mm 0.06 in1.5 mm
07:45 PM 41.5°F5.3°C 38.0°F3.3°C 87% 0.3 mph E0.5 kmh E -- 29.86 in1011.2 mb - 0.01 in0.3 mm 0.06 in1.5 mm
08:00 PM 41.4°F5.2°C 38.1°F3.4°C 88% Calm Calm -- 29.85 in1010.8 mb - 0.01 in0.3 mm 0.07 in1.8 mm
08:15 PM 41.4°F5.2°C 38.4°F3.6°C 89% 2.6 mph E4.2 kmh E 3.0 mph4.8 kmh 29.84 in1010.5 mb - 0.02 in0.5 mm 0.09 in2.3 mm
08:30 PM 41.4°F5.2°C 38.7°F3.7°C 90% 1.8 mph E2.9 kmh E 5.0 mph8.0 kmh 29.84 in1010.5 mb - 0.02 in0.5 mm 0.12 in3.0 mm
08:45 PM 41.3°F5.2°C 38.6°F3.7°C 90% 1.7 mph ENE2.7 kmh ENE 7.0 mph11.3 kmh 29.83 in1010.2 mb - 0.02 in0.5 mm 0.13 in3.3 mm
09:00 PM 41.2°F5.1°C 38.8°F3.8°C 91% 3.3 mph E5.3 kmh E 9.0 mph14.5 kmh 29.82 in1009.8 mb - 0.02 in0.5 mm 0.15 in3.8 mm
09:15 PM 41.2°F5.1°C 38.8°F3.8°C 91% 3.2 mph E5.1 kmh E 7.0 mph11.3 kmh 29.81 in1009.5 mb - 0.02 in0.5 mm 0.17 in4.3 mm
09:30 PM 41.3°F5.2°C 39.2°F4.0°C 92% 2.3 mph E3.7 kmh E 2.0 mph3.2 kmh 29.80 in1009.1 mb - 0.01 in0.3 mm 0.17 in4.3 mm
09:45 PM 41.5°F5.3°C 39.3°F4.1°C 92% 0.6 mph SE1.0 kmh SE 4.0 mph6.4 kmh 29.80 in1009.1 mb - 0.02 in0.5 mm 0.20 in5.1 mm
10:00 PM 41.8°F5.4°C 39.9°F4.4°C 93% 5.6 mph ENE9.0 kmh ENE 9.0 mph14.5 kmh 29.79 in1008.8 mb - 0.02 in0.5 mm 0.21 in5.3 mm
10:15 PM 42.2°F5.7°C 40.3°F4.6°C 93% 5.2 mph NE8.4 kmh NE 12.0 mph19.3 kmh 29.78 in1008.5 mb - 0.02 in0.5 mm 0.22 in5.6 mm
10:30 PM 42.5°F5.8°C 40.6°F4.8°C 93% 4.3 mph SE6.9 kmh SE 12.0 mph19.3 kmh 29.78 in1008.5 mb - 0.01 in0.3 mm 0.23 in5.8 mm
10:45 PM 42.7°F5.9°C 41.1°F5.1°C 94% 6.6 mph SE10.6 kmh SE 10.0 mph16.1 kmh 29.77 in1008.1 mb - 0.02 in0.5 mm 0.24 in6.1 mm
11:00 PM 43.0°F6.1°C 41.4°F5.2°C 94% 7.2 mph ESE11.6 kmh ESE 11.0 mph17.7 kmh 29.76 in1007.8 mb - 0.02 in0.5 mm 0.31 in7.9 mm
11:15 PM 43.2°F6.2°C 41.6°F5.3°C 94% 6.8 mph SE10.9 kmh SE 11.0 mph17.7 kmh 29.76 in1007.8 mb - 0.02 in0.5 mm 0.02 in0.5 mm
11:30 PM 43.5°F6.4°C 42.2°F5.7°C 95% 5.2 mph SE8.4 kmh SE 9.0 mph14.5 kmh 29.75 in1007.5 mb - 0.02 in0.5 mm 0.03 in0.8 mm
11:45 PM 43.7°F6.5°C 42.4°F5.8°C 95% 6.6 mph SE10.6 kmh SE 11.0 mph17.7 kmh 29.74 in1007.1 mb - 0.02 in0.5 mm 0.05 in1.3 mm